createdAt,value
2018-10-03T00:01:57.651Z,99.90
2018-10-03T00:04:27.348Z,99.90
2018-10-03T00:06:56.970Z,99.90
2018-10-03T00:09:26.743Z,99.90
2018-10-03T00:11:56.387Z,99.90
2018-10-03T00:14:26.135Z,99.90
2018-10-03T00:16:55.733Z,99.90
2018-10-03T00:19:25.586Z,99.90
2018-10-03T00:21:55.595Z,99.90
2018-10-03T00:24:25.183Z,99.90
2018-10-03T00:26:54.754Z,99.90
2018-10-03T00:29:24.540Z,99.90
2018-10-03T00:31:54.292Z,99.90
2018-10-03T00:34:24.126Z,99.90
2018-10-03T00:36:53.701Z,99.90
2018-10-03T00:39:23.456Z,99.90
2018-10-03T00:41:54.253Z,99.90
2018-10-03T00:44:23.969Z,99.90
2018-10-03T00:46:53.556Z,99.90
2018-10-03T00:49:23.336Z,99.90
2018-10-03T00:51:53.013Z,99.90
2018-10-03T00:54:22.605Z,99.90
2018-10-03T00:56:52.252Z,99.90
2018-10-03T00:59:21.840Z,99.90
2018-10-03T01:01:51.531Z,99.90
2018-10-03T01:04:21.252Z,99.90
2018-10-03T01:06:50.825Z,99.90
2018-10-03T01:09:20.564Z,99.90
2018-10-03T01:11:50.235Z,99.90
2018-10-03T01:14:20.000Z,99.90
2018-10-03T01:16:49.571Z,99.90
2018-10-03T01:19:20.528Z,99.90
2018-10-03T01:21:50.036Z,99.90
2018-10-03T01:24:19.592Z,99.90
2018-10-03T01:26:49.316Z,99.90
2018-10-03T01:29:18.871Z,99.90
2018-10-03T01:31:48.676Z,99.90
2018-10-03T01:34:18.287Z,99.90
2018-10-03T01:36:48.166Z,99.90
2018-10-03T01:39:17.677Z,99.90
2018-10-03T01:41:47.355Z,99.90
2018-10-03T01:44:17.005Z,99.90
2018-10-03T01:46:46.645Z,99.90
2018-10-03T01:49:16.213Z,99.90
2018-10-03T01:51:45.938Z,99.90
2018-10-03T01:54:15.527Z,99.90
2018-10-03T01:56:45.129Z,99.90
2018-10-03T01:59:14.787Z,99.90
2018-10-03T02:01:44.396Z,99.90
2018-10-03T02:04:13.973Z,99.90
2018-10-03T02:06:43.772Z,99.90
2018-10-03T02:09:13.373Z,99.90
2018-10-03T02:11:43.149Z,99.90
2018-10-03T02:14:12.757Z,99.90
2018-10-03T02:16:42.366Z,99.90
2018-10-03T02:19:11.997Z,99.90
2018-10-03T02:21:42.242Z,99.90
2018-10-03T02:24:12.205Z,99.90
2018-10-03T02:26:42.281Z,99.90
2018-10-03T02:29:11.978Z,99.90
2018-10-03T02:31:41.517Z,99.90
2018-10-03T02:34:11.317Z,99.90
2018-10-03T02:36:40.873Z,99.90
2018-10-03T02:39:10.810Z,99.90
2018-10-03T02:41:40.507Z,99.90
2018-10-03T02:44:10.202Z,99.90
2018-10-03T02:46:39.833Z,99.90
2018-10-03T02:49:09.746Z,99.90
2018-10-03T02:51:39.529Z,99.90
2018-10-03T02:54:09.257Z,99.90
2018-10-03T02:56:39.137Z,99.90
2018-10-03T02:59:09.311Z,99.90
2018-10-03T03:01:39.049Z,99.90
2018-10-03T03:04:08.571Z,99.90
2018-10-03T03:06:38.190Z,99.90
2018-10-03T03:09:12.312Z,99.90
2018-10-03T03:11:42.133Z,99.90
2018-10-03T03:14:11.702Z,99.90
2018-10-03T03:16:41.256Z,99.90
2018-10-03T03:19:10.811Z,99.90
2018-10-03T03:26:37.516Z,99.90
2018-10-03T03:29:07.196Z,99.90
2018-10-03T03:31:36.793Z,99.90
2018-10-03T03:34:06.440Z,99.90
2018-10-03T03:36:36.131Z,99.90
2018-10-03T03:39:07.111Z,99.90
2018-10-03T03:41:36.897Z,99.90
2018-10-03T03:44:06.661Z,99.90
2018-10-03T03:46:36.283Z,99.90
2018-10-03T03:49:05.919Z,99.90
2018-10-03T03:51:35.663Z,99.90
2018-10-03T03:54:05.529Z,99.90
2018-10-03T03:56:35.398Z,99.90
2018-10-03T03:59:05.137Z,99.90
2018-10-03T04:01:34.843Z,99.90
2018-10-03T04:04:04.493Z,99.90
2018-10-03T04:06:34.198Z,99.90
2018-10-03T04:09:04.412Z,99.90
2018-10-03T04:11:34.839Z,99.90
2018-10-03T04:14:04.542Z,99.90
2018-10-03T04:16:34.234Z,99.90
2018-10-03T04:19:03.944Z,99.90
2018-10-03T04:21:42.859Z,99.90
2018-10-03T04:24:13.024Z,99.90
2018-10-03T04:26:42.544Z,99.90
2018-10-03T04:29:13.141Z,99.90
2018-10-03T04:31:42.748Z,99.90
2018-10-03T04:34:12.308Z,99.90
2018-10-03T04:36:41.863Z,99.90
2018-10-03T04:39:11.462Z,99.90
2018-10-03T04:41:40.989Z,99.90
2018-10-03T04:44:10.811Z,99.90
2018-10-03T04:46:40.482Z,99.90
2018-10-03T04:49:10.057Z,99.90
2018-10-03T04:51:39.557Z,99.90
2018-10-03T04:54:09.178Z,99.90
2018-10-03T04:56:38.751Z,99.90
2018-10-03T04:59:08.318Z,99.90
2018-10-03T05:01:38.013Z,99.90
2018-10-03T05:04:07.753Z,99.90
2018-10-03T05:06:37.470Z,99.90
2018-10-03T05:09:08.688Z,99.90
2018-10-03T05:11:38.241Z,99.90
2018-10-03T05:14:07.913Z,99.90
2018-10-03T05:16:37.544Z,99.90
2018-10-03T05:19:07.299Z,99.90
2018-10-03T05:21:37.183Z,99.90
2018-10-03T05:24:06.920Z,99.90
2018-10-03T05:26:37.430Z,99.90
2018-10-03T05:29:07.097Z,99.90
2018-10-03T05:31:36.798Z,99.90
2018-10-03T05:34:06.572Z,99.90
2018-10-03T05:36:36.166Z,99.90
2018-10-03T05:39:08.855Z,99.90
2018-10-03T05:41:38.731Z,99.90
2018-10-03T05:44:08.786Z,99.90
2018-10-03T05:46:38.593Z,99.90
2018-10-03T05:49:08.442Z,99.90
2018-10-03T05:51:38.162Z,99.90
2018-10-03T05:54:08.142Z,99.90
2018-10-03T05:56:37.894Z,99.90
2018-10-03T05:59:07.488Z,99.90
2018-10-03T06:01:37.082Z,99.90
2018-10-03T06:04:06.713Z,99.90
2018-10-03T06:06:36.287Z,99.90
2018-10-03T06:09:10.923Z,99.90
2018-10-03T06:11:41.652Z,99.90
2018-10-03T06:14:12.115Z,99.90
2018-10-03T06:16:41.887Z,99.90
2018-10-03T06:19:11.603Z,99.90
2018-10-03T06:21:41.261Z,99.90
2018-10-03T06:24:10.987Z,99.90
2018-10-03T06:26:41.581Z,99.90
2018-10-03T06:29:11.532Z,99.90
2018-10-03T06:31:41.293Z,99.90
2018-10-03T06:34:11.278Z,99.90
2018-10-03T06:36:41.036Z,99.90
2018-10-03T06:39:11.517Z,99.90
2018-10-03T06:41:41.863Z,99.90
2018-10-03T06:44:12.027Z,99.90
2018-10-03T06:46:41.786Z,99.90
2018-10-03T06:49:11.547Z,99.90
2018-10-03T06:51:41.417Z,99.90
2018-10-03T06:54:11.236Z,99.90
2018-10-03T06:56:40.982Z,99.90
2018-10-03T06:59:10.596Z,99.90
2018-10-03T07:01:40.313Z,99.90
2018-10-03T07:04:10.032Z,99.90
2018-10-03T07:06:39.678Z,99.90
2018-10-03T07:09:09.937Z,99.90
2018-10-03T07:11:39.573Z,99.90
2018-10-03T07:14:15.772Z,99.90
2018-10-03T07:16:45.346Z,99.90
2018-10-03T07:19:15.013Z,99.90
2018-10-03T07:21:44.606Z,99.90
2018-10-03T07:24:14.324Z,99.90
2018-10-03T07:26:44.977Z,99.90
2018-10-03T07:29:14.736Z,99.90
2018-10-03T07:31:44.422Z,99.90
2018-10-03T07:34:14.210Z,99.90
2018-10-03T07:36:44.266Z,99.90
2018-10-03T07:39:14.262Z,99.90
2018-10-03T07:41:44.044Z,99.90
2018-10-03T07:44:13.807Z,99.90
2018-10-03T07:46:43.537Z,99.90
2018-10-03T07:49:13.458Z,99.90
2018-10-03T07:51:43.377Z,99.90
2018-10-03T07:54:13.319Z,99.90
2018-10-03T07:56:43.197Z,99.90
2018-10-03T07:59:13.099Z,99.90
2018-10-03T08:01:43.217Z,99.90
2018-10-03T08:04:12.861Z,99.90
2018-10-03T08:06:42.674Z,99.90
2018-10-03T08:09:12.519Z,99.90
2018-10-03T08:11:42.343Z,99.90
2018-10-03T08:14:12.199Z,99.90
2018-10-03T08:16:41.841Z,99.90
2018-10-03T08:19:11.714Z,99.90
2018-10-03T08:21:41.338Z,99.90
2018-10-03T08:24:12.138Z,99.90
2018-10-03T08:31:39.624Z,99.90
2018-10-03T08:34:09.488Z,99.90
2018-10-03T08:36:39.303Z,99.90
2018-10-03T08:39:12.408Z,99.90
2018-10-03T08:41:42.558Z,99.90
2018-10-03T08:44:12.381Z,99.80
2018-10-03T08:46:42.254Z,99.20
2018-10-03T08:49:12.169Z,98.50
2018-10-03T08:51:42.092Z,98.60
2018-10-03T08:54:11.955Z,98.90
2018-10-03T08:56:41.600Z,97.80
2018-10-03T08:59:11.585Z,96.90
2018-10-03T09:01:41.403Z,97.10
2018-10-03T09:04:11.331Z,96.80
2018-10-03T09:06:41.307Z,97.80
2018-10-03T09:09:11.506Z,96.00
2018-10-03T09:11:41.319Z,95.80
2018-10-03T09:14:11.050Z,95.90
2018-10-03T09:16:40.926Z,95.60
2018-10-03T09:19:10.767Z,98.90
2018-10-03T09:21:40.480Z,94.90
2018-10-03T09:24:11.146Z,93.60
2018-10-03T09:26:40.894Z,94.50
2018-10-03T09:29:11.340Z,94.40
2018-10-03T09:31:41.440Z,92.80
2018-10-03T09:34:11.135Z,94.20
2018-10-03T09:36:40.847Z,92.30
2018-10-03T09:39:11.791Z,92.80
2018-10-03T09:41:42.056Z,93.70
2018-10-03T09:44:12.369Z,92.90
2018-10-03T09:46:42.569Z,92.90
2018-10-03T09:49:12.701Z,92.30
2018-10-03T09:51:42.671Z,92.20
2018-10-03T09:54:12.589Z,92.30
2018-10-03T09:56:42.614Z,92.20
2018-10-03T09:59:12.577Z,93.10
2018-10-03T10:01:42.398Z,92.10
2018-10-03T10:04:12.765Z,92.60
2018-10-03T10:06:42.812Z,93.20
2018-10-03T10:09:12.703Z,93.10
2018-10-03T10:11:42.723Z,93.40
2018-10-03T10:14:12.734Z,93.00
2018-10-03T10:16:42.518Z,93.20
2018-10-03T10:19:12.483Z,93.20
2018-10-03T10:21:42.586Z,93.80
2018-10-03T10:24:12.519Z,93.40
2018-10-03T10:26:42.520Z,93.50
2018-10-03T10:29:12.345Z,93.60
2018-10-03T10:31:42.393Z,93.80
2018-10-03T10:34:12.228Z,93.30
2018-10-03T10:36:42.170Z,93.90
2018-10-03T10:39:12.705Z,94.30
2018-10-03T10:41:42.504Z,94.40
2018-10-03T10:44:12.503Z,94.70
2018-10-03T10:46:42.716Z,94.90
2018-10-03T10:49:13.033Z,95.30
2018-10-03T10:51:43.221Z,95.50
2018-10-03T10:54:13.094Z,94.70
2018-10-03T10:56:43.221Z,94.80
2018-10-03T10:59:13.190Z,94.10
2018-10-03T11:01:43.225Z,94.00
2018-10-03T11:04:13.050Z,93.90
2018-10-03T11:06:42.972Z,92.80
2018-10-03T11:09:13.286Z,92.40
2018-10-03T11:11:44.572Z,92.60
2018-10-03T11:14:14.586Z,91.50
2018-10-03T11:16:44.746Z,91.00
2018-10-03T11:19:14.726Z,90.80
2018-10-03T11:21:44.727Z,90.10
2018-10-03T11:24:15.962Z,89.10
2018-10-03T11:26:45.707Z,89.40
2018-10-03T11:29:15.734Z,88.80
2018-10-03T11:31:45.485Z,88.80
2018-10-03T11:34:15.385Z,87.00
2018-10-03T11:36:45.711Z,86.50
2018-10-03T11:39:15.557Z,86.10
2018-10-03T11:41:45.503Z,86.20
2018-10-03T11:44:15.619Z,87.00
2018-10-03T11:46:45.502Z,87.40
2018-10-03T11:49:15.625Z,87.50
2018-10-03T11:51:45.530Z,86.50
2018-10-03T11:54:15.479Z,86.50
2018-10-03T11:56:45.435Z,86.50
2018-10-03T11:59:15.593Z,86.00
2018-10-03T12:01:45.552Z,86.20
2018-10-03T12:04:15.440Z,85.50
2018-10-03T12:06:45.549Z,86.40
2018-10-03T12:09:15.488Z,86.20
2018-10-03T12:11:46.083Z,85.70
2018-10-03T12:14:16.113Z,85.60
2018-10-03T12:16:46.221Z,85.20
2018-10-03T12:19:16.274Z,86.60
2018-10-03T12:21:46.157Z,85.10
2018-10-03T12:24:15.879Z,84.40
2018-10-03T12:26:46.196Z,83.70
2018-10-03T12:29:15.967Z,83.80
2018-10-03T12:31:45.736Z,83.80
2018-10-03T12:34:15.850Z,84.00
2018-10-03T12:36:45.716Z,82.90
2018-10-03T12:39:15.583Z,82.60
2018-10-03T12:41:45.597Z,82.80
2018-10-03T12:44:15.660Z,81.70
2018-10-03T12:46:45.599Z,82.00
2018-10-03T12:49:15.544Z,82.20
2018-10-03T12:51:45.495Z,82.60
2018-10-03T12:54:15.469Z,82.20
2018-10-03T12:56:45.217Z,81.30
2018-10-03T12:59:14.963Z,81.80
2018-10-03T13:01:44.698Z,82.20
2018-10-03T13:04:14.575Z,79.80
2018-10-03T13:06:44.349Z,79.60
2018-10-03T13:09:15.080Z,80.70
2018-10-03T13:11:45.128Z,79.70
2018-10-03T13:14:15.239Z,80.50
2018-10-03T13:16:45.100Z,80.50
2018-10-03T13:19:16.943Z,79.30
2018-10-03T13:21:46.932Z,79.80
2018-10-03T13:24:17.011Z,80.30
2018-10-03T13:26:46.790Z,80.60
2018-10-03T13:29:16.629Z,81.30
2018-10-03T13:31:46.651Z,81.90
2018-10-03T13:34:16.862Z,81.50
2018-10-03T13:36:46.853Z,81.40
2018-10-03T13:39:16.687Z,81.00
2018-10-03T13:41:46.594Z,80.20
2018-10-03T13:44:16.566Z,78.50
2018-10-03T13:46:46.461Z,79.30
2018-10-03T13:49:16.527Z,76.90
2018-10-03T13:51:46.486Z,76.20
2018-10-03T13:54:16.428Z,77.00
2018-10-03T13:56:46.358Z,77.60
2018-10-03T13:59:16.811Z,77.70
2018-10-03T14:01:46.627Z,79.30
2018-10-03T14:04:16.405Z,79.80
2018-10-03T14:06:46.647Z,79.70
2018-10-03T14:09:16.566Z,80.10
2018-10-03T14:11:46.265Z,79.90
2018-10-03T14:14:16.374Z,79.90
2018-10-03T14:16:47.347Z,78.90
2018-10-03T14:24:14.051Z,76.90
2018-10-03T14:26:43.934Z,76.10
2018-10-03T14:29:13.903Z,77.10
2018-10-03T14:31:44.024Z,77.30
2018-10-03T14:34:14.067Z,76.70
2018-10-03T14:36:44.361Z,77.20
2018-10-03T14:39:14.312Z,76.40
2018-10-03T14:41:44.548Z,73.70
2018-10-03T14:44:14.429Z,74.60
2018-10-03T14:46:44.549Z,74.60
2018-10-03T14:49:14.354Z,75.60
2018-10-03T14:51:44.341Z,77.00
2018-10-03T14:54:14.069Z,77.80
2018-10-03T14:56:43.930Z,78.10
2018-10-03T14:59:14.110Z,77.40
2018-10-03T15:01:43.907Z,77.40
2018-10-03T15:04:13.930Z,77.10
2018-10-03T15:06:43.722Z,76.50
2018-10-03T15:09:13.694Z,77.00
2018-10-03T15:11:43.656Z,77.40
2018-10-03T15:14:13.669Z,76.80
2018-10-03T15:21:42.135Z,75.40
2018-10-03T15:24:12.428Z,73.90
2018-10-03T15:26:42.614Z,74.80
2018-10-03T15:29:12.701Z,74.40
2018-10-03T15:31:42.780Z,74.70
2018-10-03T15:34:12.824Z,75.10
2018-10-03T15:36:42.896Z,74.80
2018-10-03T15:39:12.985Z,74.90
2018-10-03T15:41:42.985Z,74.90
2018-10-03T15:44:12.991Z,74.90
2018-10-03T15:46:42.930Z,75.80
2018-10-03T15:49:12.909Z,76.00
2018-10-03T15:51:42.626Z,76.80
2018-10-03T15:54:12.437Z,77.40
2018-10-03T15:56:42.525Z,77.60
2018-10-03T15:59:12.447Z,77.80
2018-10-03T16:01:42.291Z,78.40
2018-10-03T16:04:12.625Z,78.70
2018-10-03T16:06:42.515Z,79.70
2018-10-03T16:09:12.731Z,79.90
2018-10-03T16:11:42.930Z,80.30
2018-10-03T16:14:13.491Z,81.10
2018-10-03T16:16:44.384Z,80.30
2018-10-03T16:19:14.320Z,80.90
2018-10-03T16:21:44.260Z,81.50
2018-10-03T16:24:14.718Z,81.40
2018-10-03T16:26:44.806Z,81.60
2018-10-03T16:29:14.982Z,82.60
2018-10-03T16:31:45.101Z,82.50
2018-10-03T16:34:15.032Z,82.90
2018-10-03T16:36:45.265Z,83.20
2018-10-03T16:39:15.454Z,83.30
2018-10-03T16:41:45.425Z,83.80
2018-10-03T16:44:15.602Z,84.30
2018-10-03T16:46:47.549Z,84.30
2018-10-03T16:49:17.512Z,84.60
2018-10-03T16:51:47.809Z,85.00
2018-10-03T16:54:17.974Z,85.30
2018-10-03T16:56:48.147Z,85.80
2018-10-03T16:59:20.387Z,86.20
2018-10-03T17:01:50.958Z,86.90
2018-10-03T17:04:20.973Z,87.20
2018-10-03T17:06:50.924Z,87.90
2018-10-03T17:09:21.070Z,88.20
2018-10-03T17:11:51.702Z,88.70
2018-10-03T17:14:25.154Z,89.40
2018-10-03T17:16:55.527Z,89.50
2018-10-03T17:19:25.940Z,89.80
2018-10-03T17:21:56.365Z,90.00
2018-10-03T17:24:27.474Z,90.10
2018-10-03T17:26:57.815Z,90.10
2018-10-03T17:29:28.258Z,90.70
2018-10-03T17:31:59.025Z,90.90
2018-10-03T17:34:29.709Z,91.30
2018-10-03T17:37:00.250Z,91.10
2018-10-03T17:39:30.899Z,91.30
2018-10-03T17:42:01.270Z,91.70
2018-10-03T17:44:31.534Z,91.80
2018-10-03T17:47:02.029Z,92.50
2018-10-03T17:49:32.027Z,92.70
2018-10-03T17:56:59.601Z,93.50
2018-10-03T17:59:29.905Z,93.60
2018-10-03T18:02:02.895Z,93.90
2018-10-03T18:04:33.138Z,94.40
2018-10-03T18:07:03.006Z,94.70
2018-10-03T18:09:33.265Z,94.30
2018-10-03T18:12:03.461Z,94.30
2018-10-03T18:14:33.643Z,94.50
2018-10-03T18:17:03.898Z,94.60
2018-10-03T18:19:34.212Z,94.80
2018-10-03T18:22:04.291Z,94.90
2018-10-03T18:24:34.396Z,95.10
2018-10-03T18:27:04.606Z,95.40
2018-10-03T18:29:34.852Z,95.60
2018-10-03T18:32:05.463Z,95.90
2018-10-03T18:34:35.801Z,95.90
2018-10-03T18:37:06.451Z,95.80
2018-10-03T18:39:36.893Z,96.20
2018-10-03T18:42:07.264Z,96.30
2018-10-03T18:44:37.840Z,96.50
2018-10-03T18:47:08.103Z,96.50
2018-10-03T18:49:38.603Z,96.70
2018-10-03T18:52:09.394Z,96.80
2018-10-03T18:54:39.880Z,96.90
2018-10-03T18:57:10.643Z,97.10
2018-10-03T18:59:41.301Z,97.30
2018-10-03T19:02:12.082Z,97.30
2018-10-03T19:04:42.816Z,97.40
2018-10-03T19:07:13.173Z,97.60
2018-10-03T19:09:43.580Z,97.60
2018-10-03T19:12:13.937Z,97.70
2018-10-03T19:14:44.750Z,97.60
2018-10-03T19:17:15.793Z,97.70
2018-10-03T19:19:47.145Z,98.00
2018-10-03T19:22:18.325Z,98.10
2018-10-03T19:24:49.952Z,98.10
2018-10-03T19:27:20.862Z,97.90
2018-10-03T19:29:52.316Z,97.80
2018-10-03T19:32:23.296Z,98.70
2018-10-03T19:34:54.570Z,98.40
2018-10-03T19:37:25.717Z,98.30
2018-10-03T19:39:56.468Z,98.20
2018-10-03T19:42:26.931Z,98.50
2018-10-03T19:44:56.940Z,98.70
2018-10-03T19:47:27.031Z,98.10
2018-10-03T19:49:57.328Z,98.00
2018-10-03T19:52:27.308Z,98.60
2018-10-03T19:54:57.446Z,98.30
2018-10-03T19:57:27.477Z,98.40
2018-10-03T19:59:57.490Z,98.30
2018-10-03T20:02:27.517Z,98.00
2018-10-03T20:04:57.356Z,99.60
2018-10-03T20:07:27.220Z,99.10
2018-10-03T20:09:57.303Z,99.10
2018-10-03T20:12:27.256Z,98.90
2018-10-03T20:14:57.260Z,98.80
2018-10-03T20:17:27.251Z,98.80
2018-10-03T20:19:57.420Z,98.90
2018-10-03T20:22:27.534Z,99.00
2018-10-03T20:24:57.501Z,99.00
2018-10-03T20:27:27.584Z,99.10
2018-10-03T20:29:57.482Z,99.40
2018-10-03T20:32:27.407Z,99.70
2018-10-03T20:34:57.407Z,99.80
2018-10-03T20:37:27.307Z,99.70
2018-10-03T20:39:57.205Z,99.60
2018-10-03T20:42:27.255Z,99.50
2018-10-03T20:44:57.256Z,99.20
2018-10-03T20:47:27.187Z,99.30
2018-10-03T20:49:57.080Z,99.30
2018-10-03T20:52:27.046Z,99.50
2018-10-03T20:54:56.989Z,99.50
2018-10-03T20:57:27.086Z,99.90
2018-10-03T20:59:56.800Z,99.90
2018-10-03T21:02:26.545Z,99.90
2018-10-03T21:04:56.602Z,99.90
2018-10-03T21:07:26.532Z,99.70
2018-10-03T21:09:56.300Z,99.80
2018-10-03T21:12:26.430Z,99.80
2018-10-03T21:14:56.418Z,99.50
2018-10-03T21:17:26.387Z,99.70
2018-10-03T21:19:56.386Z,99.70
2018-10-03T21:22:26.092Z,99.70
2018-10-03T21:24:56.003Z,99.70
2018-10-03T21:27:25.691Z,99.80
2018-10-03T21:29:55.538Z,99.70
2018-10-03T21:32:25.507Z,99.90
2018-10-03T21:34:55.250Z,99.90
2018-10-03T21:37:24.877Z,99.90
2018-10-03T21:39:54.677Z,99.90
2018-10-03T21:42:24.645Z,99.90
2018-10-03T21:44:54.464Z,99.90
2018-10-03T21:47:24.234Z,99.90
2018-10-03T21:49:53.939Z,99.90
2018-10-03T21:52:23.811Z,99.90
2018-10-03T21:54:56.827Z,99.90
2018-10-03T21:57:26.553Z,99.90
2018-10-03T21:59:56.402Z,99.90
2018-10-03T22:02:26.123Z,99.90
2018-10-03T22:04:56.025Z,99.90
2018-10-03T22:07:26.000Z,99.90
2018-10-03T22:09:55.712Z,99.90
2018-10-03T22:12:25.476Z,99.90
2018-10-03T22:14:55.300Z,99.90
2018-10-03T22:17:25.682Z,99.90
2018-10-03T22:19:56.907Z,99.90
2018-10-03T22:22:26.671Z,99.90
2018-10-03T22:24:56.480Z,99.90
2018-10-03T22:27:26.158Z,99.90
2018-10-03T22:29:55.881Z,99.90
2018-10-03T22:32:25.671Z,99.90
2018-10-03T22:34:55.410Z,99.90
2018-10-03T22:37:25.261Z,99.90
2018-10-03T22:39:54.956Z,99.90
2018-10-03T22:42:25.907Z,99.90
2018-10-03T22:44:56.487Z,99.90
2018-10-03T22:47:26.252Z,99.90
2018-10-03T22:49:56.146Z,99.90
2018-10-03T22:52:25.846Z,99.90
2018-10-03T22:54:55.466Z,99.90
2018-10-03T22:57:25.269Z,99.90
2018-10-03T22:59:55.103Z,99.90
2018-10-03T23:02:24.802Z,99.90
2018-10-03T23:04:54.365Z,99.90
2018-10-03T23:07:23.941Z,99.90
2018-10-03T23:09:53.576Z,99.90
2018-10-03T23:12:23.413Z,99.90
2018-10-03T23:14:53.293Z,99.90
2018-10-03T23:17:23.008Z,99.90
2018-10-03T23:19:52.695Z,99.90
2018-10-03T23:22:22.220Z,99.90
2018-10-03T23:24:51.931Z,99.90
2018-10-03T23:27:21.555Z,99.90
2018-10-03T23:29:51.056Z,99.90
2018-10-03T23:32:20.627Z,99.90
2018-10-03T23:34:51.232Z,99.90
2018-10-03T23:37:22.008Z,99.90
2018-10-03T23:39:51.597Z,99.90
2018-10-03T23:42:21.419Z,99.90
2018-10-03T23:44:51.414Z,99.90
2018-10-03T23:47:21.270Z,99.90
2018-10-03T23:49:51.075Z,99.90
2018-10-03T23:52:20.810Z,99.90
2018-10-03T23:54:50.400Z,99.90
2018-10-03T23:57:20.099Z,99.90
2018-10-03T23:59:49.960Z,99.90
